Terminal Aerodrome Forecast
Issued by NWS Memphis, TN

Home | Current Version | Previous Version | Text Only | Print | Product List | Glossary On
Versions: 1 2 3 4 5 6 7 8 9 10 11 12 13 14 15 16 17 18 19 20 21 22 23 24 25 26 27 28 29 30 31 32 33
118
FTUS44 KMEG 182330
TAFMEM
TAF
KMEM 182330Z 1900/1924 06005KT P6SM VCSH FEW030 OVC045
     FM190300 07005KT P6SM VCSH SCT018 OVC030
     FM190500 08005KT P6SM -SHRA FEW007 OVC018
     FM190700 10005KT 5SM -SHRA BR SCT004 OVC007
      TEMPO 1911/1915 2SM -SHRA BR BKN004
     FM191500 15008KT 6SM -SHRA BR BKN006 OVC010=

USA.gov is the U.S. government's official web portal to all federal, state and local government web resources and services.